sensor_id;sensor_type;location;lat;lon;timestamp;pressure;altitude;pressure_sealevel;temperature;humidity
37238;BME280;23129;49.662;8.448;2022-11-04T00:02:08;99659.38;;;11.26;100.00
37238;BME280;23129;49.662;8.448;2022-11-04T00:04:36;99661.06;;;11.27;100.00
37238;BME280;23129;49.662;8.448;2022-11-04T00:07:06;99652.28;;;11.28;100.00
37238;BME280;23129;49.662;8.448;2022-11-04T00:09:54;99640.06;;;11.27;100.00
37238;BME280;23129;49.662;8.448;2022-11-04T00:12:22;99645.31;;;11.27;100.00
37238;BME280;23129;49.662;8.448;2022-11-04T00:14:53;99626.94;;;11.27;100.00
37238;BME280;23129;49.662;8.448;2022-11-04T00:17:41;99630.50;;;11.26;100.00
37238;BME280;23129;49.662;8.448;2022-11-04T00:20:09;99639.16;;;11.28;100.00
37238;BME280;23129;49.662;8.448;2022-11-04T00:22:56;99633.06;;;11.28;100.00
37238;BME280;23129;49.662;8.448;2022-11-04T00:25:42;99629.56;;;11.27;100.00
37238;BME280;23129;49.662;8.448;2022-11-04T00:28:27;99630.31;;;11.31;100.00
37238;BME280;23129;49.662;8.448;2022-11-04T00:31:11;99642.50;;;11.32;100.00
37238;BME280;23129;49.662;8.448;2022-11-04T00:33:58;99636.25;;;11.34;100.00
37238;BME280;23129;49.662;8.448;2022-11-04T00:36:26;99623.91;;;11.36;100.00
37238;BME280;23129;49.662;8.448;2022-11-04T00:38:56;99640.53;;;11.37;100.00
37238;BME280;23129;49.662;8.448;2022-11-04T00:41:25;99648.31;;;11.38;100.00
37238;BME280;23129;49.662;8.448;2022-11-04T00:43:56;99648.31;;;11.38;100.00
37238;BME280;23129;49.662;8.448;2022-11-04T00:46:26;99642.22;;;11.38;100.00
37238;BME280;23129;49.662;8.448;2022-11-04T00:48:55;99644.84;;;11.38;100.00
37238;BME280;23129;49.662;8.448;2022-11-04T00:51:23;99665.91;;;11.36;100.00
37238;BME280;23129;49.662;8.448;2022-11-04T00:53:51;99665.00;;;11.37;100.00
37238;BME280;23129;49.662;8.448;2022-11-04T00:56:21;99671.91;;;11.40;100.00
37238;BME280;23129;49.662;8.448;2022-11-04T00:58:49;99678.75;;;11.42;100.00
37238;BME280;23129;49.662;8.448;2022-11-04T01:01:18;99680.34;;;11.47;100.00
37238;BME280;23129;49.662;8.448;2022-11-04T01:03:49;99673.19;;;11.50;100.00
37238;BME280;23129;49.662;8.448;2022-11-04T01:06:19;99680.88;;;11.55;100.00
37238;BME280;23129;49.662;8.448;2022-11-04T01:08:48;99693.09;;;11.56;100.00
37238;BME280;23129;49.662;8.448;2022-11-04T01:11:24;99687.81;;;11.56;100.00
37238;BME280;23129;49.662;8.448;2022-11-04T01:13:55;99687.81;;;11.56;100.00
37238;BME280;23129;49.662;8.448;2022-11-04T01:16:24;99690.38;;;11.57;100.00
37238;BME280;23129;49.662;8.448;2022-11-04T01:18:54;99701.75;;;11.58;100.00
37238;BME280;23129;49.662;8.448;2022-11-04T01:21:22;99700.81;;;11.59;100.00
37238;BME280;23129;49.662;8.448;2022-11-04T01:23:50;99703.44;;;11.59;100.00
37238;BME280;23129;49.662;8.448;2022-11-04T01:26:23;99692.94;;;11.59;100.00
37238;BME280;23129;49.662;8.448;2022-11-04T01:28:53;99691.13;;;11.61;100.00
37238;BME280;23129;49.662;8.448;2022-11-04T01:31:24;99695.50;;;11.60;100.00
37238;BME280;23129;49.662;8.448;2022-11-04T01:33:53;99708.56;;;11.62;100.00
37238;BME280;23129;49.662;8.448;2022-11-04T01:36:23;99703.38;;;11.60;100.00
37238;BME280;23129;49.662;8.448;2022-11-04T01:38:53;99706.88;;;11.61;100.00
37238;BME280;23129;49.662;8.448;2022-11-04T01:41:26;99708.56;;;11.62;100.00
37238;BME280;23129;49.662;8.448;2022-11-04T01:43:57;99712.13;;;11.61;100.00
37238;BME280;23129;49.662;8.448;2022-11-04T01:46:40;99714.00;;;11.57;100.00
37238;BME280;23129;49.662;8.448;2022-11-04T01:49:23;99707.00;;;11.58;100.00
37238;BME280;23129;49.662;8.448;2022-11-04T01:51:58;99705.28;;;11.57;100.00
37238;BME280;23129;49.662;8.448;2022-11-04T01:54:28;99708.00;;;11.55;100.00
37238;BME280;23129;49.662;8.448;2022-11-04T01:57:00;99712.25;;;11.58;100.00
37238;BME280;23129;49.662;8.448;2022-11-04T01:59:35;99711.47;;;11.56;100.00
37238;BME280;23129;49.662;8.448;2022-11-04T02:02:04;99718.63;;;11.52;100.00
37238;BME280;23129;49.662;8.448;2022-11-04T02:04:33;99730.00;;;11.53;100.00
37238;BME280;23129;49.662;8.448;2022-11-04T02:07:05;99704.66;;;11.52;100.00
37238;BME280;23129;49.662;8.448;2022-11-04T02:09:37;99702.94;;;11.51;100.00
37238;BME280;23129;49.662;8.448;2022-11-04T02:12:07;99707.41;;;11.49;100.00
37238;BME280;23129;49.662;8.448;2022-11-04T02:14:53;99704.13;;;11.43;100.00
37238;BME280;23129;49.662;8.448;2022-11-04T02:17:35;99706.09;;;11.38;100.00
37238;BME280;23129;49.662;8.448;2022-11-04T02:20:24;99706.34;;;11.32;100.00
37238;BME280;23129;49.662;8.448;2022-11-04T02:23:25;99717.06;;;11.28;100.00
37238;BME280;23129;49.662;8.448;2022-11-04T02:29:50;99720.06;;;11.18;100.00
37238;BME280;23129;49.662;8.448;2022-11-04T02:32:40;99722.75;;;11.17;100.00
37238;BME280;23129;49.662;8.448;2022-11-04T02:35:16;99733.25;;;11.17;100.00
37238;BME280;23129;49.662;8.448;2022-11-04T02:37:55;99725.38;;;11.17;100.00
37238;BME280;23129;49.662;8.448;2022-11-04T02:40:35;99727.94;;;11.18;100.00
37238;BME280;23129;49.662;8.448;2022-11-04T02:43:15;99724.44;;;11.18;100.00
37238;BME280;23129;49.662;8.448;2022-11-04T02:45:52;99737.56;;;11.18;100.00
37238;BME280;23129;49.662;8.448;2022-11-04T02:48:30;99731.44;;;11.19;100.00
37238;BME280;23129;49.662;8.448;2022-11-04T02:51:06;99728.84;;;11.17;100.00
37238;BME280;23129;49.662;8.448;2022-11-04T02:53:43;99724.72;;;11.12;100.00
37238;BME280;23129;49.662;8.448;2022-11-04T02:56:12;99721.53;;;11.04;100.00
37238;BME280;23129;49.662;8.448;2022-11-04T02:58:46;99723.44;;;11.00;100.00
37238;BME280;23129;49.662;8.448;2022-11-04T03:01:20;99721.88;;;10.96;100.00
37238;BME280;23129;49.662;8.448;2022-11-04T03:03:55;99723.78;;;10.92;100.00
37238;BME280;23129;49.662;8.448;2022-11-04T03:06:28;99723.81;;;10.91;100.00
37238;BME280;23129;49.662;8.448;2022-11-04T03:08:58;99730.16;;;10.85;100.00
37238;BME280;23129;49.662;8.448;2022-11-04T03:11:27;99753.91;;;10.82;100.00
37238;BME280;23129;49.662;8.448;2022-11-04T03:14:00;99778.44;;;10.81;100.00
37238;BME280;23129;49.662;8.448;2022-11-04T03:16:36;99753.19;;;10.79;100.00
37238;BME280;23129;49.662;8.448;2022-11-04T03:19:11;99762.09;;;10.74;100.00
37238;BME280;23129;49.662;8.448;2022-11-04T03:21:48;99771.88;;;10.71;100.00
37238;BME280;23129;49.662;8.448;2022-11-04T03:24:19;99778.97;;;10.67;100.00
37238;BME280;23129;49.662;8.448;2022-11-04T03:26:54;99778.25;;;10.64;100.00
37238;BME280;23129;49.662;8.448;2022-11-04T03:29:30;99786.19;;;10.62;100.00
37238;BME280;23129;49.662;8.448;2022-11-04T03:32:06;99788.03;;;10.59;100.00
37238;BME280;23129;49.662;8.448;2022-11-04T03:34:36;99782.81;;;10.59;100.00
37238;BME280;23129;49.662;8.448;2022-11-04T03:37:05;99783.78;;;10.56;100.00
37238;BME280;23129;49.662;8.448;2022-11-04T03:39:33;99781.22;;;10.55;100.00
37238;BME280;23129;49.662;8.448;2022-11-04T03:42:06;99774.28;;;10.54;100.00
37238;BME280;23129;49.662;8.448;2022-11-04T03:44:49;99777.78;;;10.52;100.00
37238;BME280;23129;49.662;8.448;2022-11-04T03:47:21;99791.94;;;10.48;100.00
37238;BME280;23129;49.662;8.448;2022-11-04T03:49:54;99798.22;;;10.44;100.00
37238;BME280;23129;49.662;8.448;2022-11-04T03:52:24;99794.84;;;10.41;100.00
37238;BME280;23129;49.662;8.448;2022-11-04T03:54:52;99793.22;;;10.38;100.00
37238;BME280;23129;49.662;8.448;2022-11-04T03:57:41;99800.28;;;10.36;100.00
37238;BME280;23129;49.662;8.448;2022-11-04T04:00:16;99803.00;;;10.33;100.00
37238;BME280;23129;49.662;8.448;2022-11-04T04:03:01;99790.94;;;10.29;100.00
37238;BME280;23129;49.662;8.448;2022-11-04T04:05:38;99786.66;;;10.26;100.00
37238;BME280;23129;49.662;8.448;2022-11-04T04:08:14;99783.31;;;10.21;100.00
37238;BME280;23129;49.662;8.448;2022-11-04T04:10:55;99784.41;;;10.16;100.00
37238;BME280;23129;49.662;8.448;2022-11-04T04:13:36;99784.63;;;10.10;100.00
37238;BME280;23129;49.662;8.448;2022-11-04T04:16:09;99779.50;;;10.06;100.00
37238;BME280;23129;49.662;8.448;2022-11-04T04:18:46;99776.19;;;10.01;100.00
37238;BME280;23129;49.662;8.448;2022-11-04T04:21:27;99784.22;;;9.97;100.00
37238;BME280;23129;49.662;8.448;2022-11-04T04:23:59;99784.34;;;9.94;100.00
37238;BME280;23129;49.662;8.448;2022-11-04T04:26:47;99787.00;;;9.92;100.00
37238;BME280;23129;49.662;8.448;2022-11-04T04:29:36;99790.63;;;9.88;100.00
37238;BME280;23129;49.662;8.448;2022-11-04T04:32:05;99792.44;;;9.86;100.00
37238;BME280;23129;49.662;8.448;2022-11-04T04:34:36;99787.22;;;9.86;100.00
37238;BME280;23129;49.662;8.448;2022-11-04T04:37:08;99774.19;;;9.85;100.00
37238;BME280;23129;49.662;8.448;2022-11-04T04:39:41;99770.66;;;9.86;100.00
37238;BME280;23129;49.662;8.448;2022-11-04T04:42:31;99771.59;;;9.83;100.00
37238;BME280;23129;49.662;8.448;2022-11-04T04:45:24;99764.78;;;9.79;100.00
37238;BME280;23129;49.662;8.448;2022-11-04T04:47:55;99763.03;;;9.78;100.00
37238;BME280;23129;49.662;8.448;2022-11-04T04:50:29;99764.88;;;9.76;100.00
37238;BME280;23129;49.662;8.448;2022-11-04T04:53:00;99770.97;;;9.76;100.00
37238;BME280;23129;49.662;8.448;2022-11-04T04:55:30;99762.19;;;9.77;100.00
37238;BME280;23129;49.662;8.448;2022-11-04T04:58:03;99763.94;;;9.78;100.00
37238;BME280;23129;49.662;8.448;2022-11-04T05:00:32;99771.81;;;9.77;100.00
37238;BME280;23129;49.662;8.448;2022-11-04T05:03:00;99772.75;;;9.76;100.00
37238;BME280;23129;49.662;8.448;2022-11-04T05:05:30;99753.56;;;9.75;100.00
37238;BME280;23129;49.662;8.448;2022-11-04T05:08:03;99764.88;;;9.76;100.00
37238;BME280;23129;49.662;8.448;2022-11-04T05:10:34;99766.69;;;9.74;100.00
37238;BME280;23129;49.662;8.448;2022-11-04T05:13:02;99759.75;;;9.73;100.00
37238;BME280;23129;49.662;8.448;2022-11-04T05:15:48;99772.84;;;9.73;100.00
37238;BME280;23129;49.662;8.448;2022-11-04T05:18:17;99763.25;;;9.72;100.00
37238;BME280;23129;49.662;8.448;2022-11-04T05:20:46;99758.91;;;9.72;100.00
37238;BME280;23129;49.662;8.448;2022-11-04T05:23:15;99750.13;;;9.73;100.00
37238;BME280;23129;49.662;8.448;2022-11-04T05:25:43;99756.22;;;9.74;100.00
37238;BME280;23129;49.662;8.448;2022-11-04T05:28:11;99749.19;;;9.76;100.00
37238;BME280;23129;49.662;8.448;2022-11-04T05:30:40;99743.94;;;9.76;100.00
37238;BME280;23129;49.662;8.448;2022-11-04T05:33:09;99732.63;;;9.75;100.00
37238;BME280;23129;49.662;8.448;2022-11-04T05:35:38;99728.22;;;9.76;100.00
37238;BME280;23129;49.662;8.448;2022-11-04T05:38:07;99728.22;;;9.76;100.00
37238;BME280;23129;49.662;8.448;2022-11-04T05:40:36;99721.25;;;9.75;100.00
37238;BME280;23129;49.662;8.448;2022-11-04T05:43:04;99730.03;;;9.74;100.00
37238;BME280;23129;49.662;8.448;2022-11-04T05:45:34;99734.44;;;9.73;100.00
37238;BME280;23129;49.662;8.448;2022-11-04T05:48:04;99733.56;;;9.73;100.00
37238;BME280;23129;49.662;8.448;2022-11-04T05:50:33;99733.56;;;9.73;100.00
37238;BME280;23129;49.662;8.448;2022-11-04T05:53:01;99730.97;;;9.73;100.00
37238;BME280;23129;49.662;8.448;2022-11-04T05:55:31;99733.56;;;9.73;100.00
37238;BME280;23129;49.662;8.448;2022-11-04T05:57:59;99730.03;;;9.74;100.00
37238;BME280;23129;49.662;8.448;2022-11-04T06:00:27;99731.72;;;9.75;100.00
37238;BME280;23129;49.662;8.448;2022-11-04T06:02:56;99732.66;;;9.74;100.00
37238;BME280;23129;49.662;8.448;2022-11-04T06:05:25;99736.19;;;9.73;100.00
37238;BME280;23129;49.662;8.448;2022-11-04T06:07:55;99738.94;;;9.70;100.00
37238;BME280;23129;49.662;8.448;2022-11-04T06:10:24;99746.88;;;9.67;100.00
37238;BME280;23129;49.662;8.448;2022-11-04T06:12:53;99750.47;;;9.64;100.00
37238;BME280;23129;49.662;8.448;2022-11-04T06:15:22;99749.63;;;9.64;100.00
37238;BME280;23129;49.662;8.448;2022-11-04T06:17:50;99745.34;;;9.61;100.00
37238;BME280;23129;49.662;8.448;2022-11-04T06:20:19;99752.44;;;9.57;100.00
37238;BME280;23129;49.662;8.448;2022-11-04T06:22:47;99767.34;;;9.55;100.00
37238;BME280;23129;49.662;8.448;2022-11-04T06:25:16;99754.38;;;9.52;100.00
37238;BME280;23129;49.662;8.448;2022-11-04T06:27:44;99765.75;;;9.51;100.00
37238;BME280;23129;49.662;8.448;2022-11-04T06:30:14;99770.22;;;9.48;100.00
37238;BME280;23129;49.662;8.448;2022-11-04T06:32:42;99773.75;;;9.47;100.00
37238;BME280;23129;49.662;8.448;2022-11-04T06:35:10;99775.56;;;9.45;100.00
37238;BME280;23129;49.662;8.448;2022-11-04T06:37:39;99779.94;;;9.44;100.00
37238;BME280;23129;49.662;8.448;2022-11-04T06:40:08;99778.25;;;9.43;100.00
37238;BME280;23129;49.662;8.448;2022-11-04T06:42:37;99792.22;;;9.42;100.00
37238;BME280;23129;49.662;8.448;2022-11-04T06:45:06;99789.66;;;9.41;100.00
37238;BME280;23129;49.662;8.448;2022-11-04T06:47:36;99782.72;;;9.40;100.00
37238;BME280;23129;49.662;8.448;2022-11-04T06:50:05;99787.09;;;9.39;100.00
37238;BME280;23129;49.662;8.448;2022-11-04T06:52:33;99787.09;;;9.39;100.00
37238;BME280;23129;49.662;8.448;2022-11-04T06:55:09;99788.81;;;9.40;100.00
37238;BME280;23129;49.662;8.448;2022-11-04T06:57:37;99785.28;;;9.41;100.00
37238;BME280;23129;49.662;8.448;2022-11-04T07:00:07;99788.63;;;9.45;100.00
37238;BME280;23129;49.662;8.448;2022-11-04T07:02:37;99789.41;;;9.48;100.00
37238;BME280;23129;49.662;8.448;2022-11-04T07:05:06;99787.53;;;9.52;100.00
37238;BME280;23129;49.662;8.448;2022-11-04T07:07:35;99789.22;;;9.54;100.00
37238;BME280;23129;49.662;8.448;2022-11-04T07:10:04;99790.72;;;9.60;100.00
37238;BME280;23129;49.662;8.448;2022-11-04T07:12:33;99786.28;;;9.64;100.00
37238;BME280;23129;49.662;8.448;2022-11-04T07:15:01;99780.94;;;9.67;100.00
37238;BME280;23129;49.662;8.448;2022-11-04T07:17:30;99785.09;;;9.72;100.00
37238;BME280;23129;49.662;8.448;2022-11-04T07:20:00;99791.06;;;9.76;100.00
37238;BME280;23129;49.662;8.448;2022-11-04T07:22:28;99796.22;;;9.79;100.00
37238;BME280;23129;49.662;8.448;2022-11-04T07:24:57;99804.72;;;9.84;100.00
37238;BME280;23129;49.662;8.448;2022-11-04T07:27:25;99809.91;;;9.87;100.00
37238;BME280;23129;49.662;8.448;2022-11-04T07:29:55;99816.72;;;9.91;100.00
37238;BME280;23129;49.662;8.448;2022-11-04T07:32:24;99803.50;;;9.94;100.00
37238;BME280;23129;49.662;8.448;2022-11-04T07:34:53;99810.41;;;9.97;100.00
37238;BME280;23129;49.662;8.448;2022-11-04T07:37:22;99812.06;;;9.99;100.00
37238;BME280;23129;49.662;8.448;2022-11-04T07:39:50;99805.81;;;10.03;100.00
37238;BME280;23129;49.662;8.448;2022-11-04T07:42:19;99806.53;;;10.07;100.00
37238;BME280;23129;49.662;8.448;2022-11-04T07:44:53;99809.00;;;10.12;100.00
37238;BME280;23129;49.662;8.448;2022-11-04T07:47:21;99817.53;;;10.17;100.00
37238;BME280;23129;49.662;8.448;2022-11-04T07:49:50;99825.25;;;10.21;100.00
37238;BME280;23129;49.662;8.448;2022-11-04T07:52:18;99828.69;;;10.23;100.00
37238;BME280;23129;49.662;8.448;2022-11-04T07:54:48;99821.59;;;10.27;100.00
37238;BME280;23129;49.662;8.448;2022-11-04T07:57:16;99821.47;;;10.30;100.00
37238;BME280;23129;49.662;8.448;2022-11-04T07:59:44;99824.03;;;10.32;100.00
37238;BME280;23129;49.662;8.448;2022-11-04T08:02:13;99816.94;;;10.35;100.00
37238;BME280;23129;49.662;8.448;2022-11-04T08:04:47;99820.31;;;10.37;100.00
37238;BME280;23129;49.662;8.448;2022-11-04T08:07:17;99815.06;;;10.37;100.00
37238;BME280;23129;49.662;8.448;2022-11-04T08:09:45;99810.66;;;10.39;100.00
37238;BME280;23129;49.662;8.448;2022-11-04T08:12:14;99811.44;;;10.41;100.00
37238;BME280;23129;49.662;8.448;2022-11-04T08:14:43;99804.38;;;10.43;100.00
37238;BME280;23129;49.662;8.448;2022-11-04T08:17:11;99799.88;;;10.47;100.00
37238;BME280;23129;49.662;8.448;2022-11-04T08:19:40;99798.78;;;10.52;100.00
37238;BME280;23129;49.662;8.448;2022-11-04T08:22:08;99795.13;;;10.57;100.00
37238;BME280;23129;49.662;8.448;2022-11-04T08:24:37;99794.94;;;10.61;100.00
37238;BME280;23129;49.662;8.448;2022-11-04T08:27:07;99786.00;;;10.67;100.00
37238;BME280;23129;49.662;8.448;2022-11-04T08:29:37;99789.28;;;10.72;100.00
37238;BME280;23129;49.662;8.448;2022-11-04T08:32:06;99787.25;;;10.80;100.00
37238;BME280;23129;49.662;8.448;2022-11-04T08:34:35;99783.44;;;10.87;100.00
37238;BME280;23129;49.662;8.448;2022-11-04T08:37:03;99792.00;;;10.92;100.00
37238;BME280;23129;49.662;8.448;2022-11-04T08:39:31;99783.88;;;10.99;100.00
37238;BME280;23129;49.662;8.448;2022-11-04T08:42:00;99784.41;;;11.07;100.00
37238;BME280;23129;49.662;8.448;2022-11-04T08:44:28;99791.13;;;11.14;100.00
37238;BME280;23129;49.662;8.448;2022-11-04T08:46:58;99782.03;;;11.23;100.00
37238;BME280;23129;49.662;8.448;2022-11-04T08:49:26;99788.78;;;11.28;100.00
37238;BME280;23129;49.662;8.448;2022-11-04T08:51:55;99792.88;;;11.35;100.00
37238;BME280;23129;49.662;8.448;2022-11-04T08:54:26;99784.59;;;11.45;100.00
37238;BME280;23129;49.662;8.448;2022-11-04T08:56:55;99793.00;;;11.53;100.00
37238;BME280;23129;49.662;8.448;2022-11-04T08:59:23;99792.75;;;11.59;100.00
37238;BME280;23129;49.662;8.448;2022-11-04T09:01:52;99787.94;;;11.69;100.00
37238;BME280;23129;49.662;8.448;2022-11-04T09:04:22;99792.09;;;11.74;100.00
37238;BME280;23129;49.662;8.448;2022-11-04T09:06:50;99800.50;;;11.82;100.00
37238;BME280;23129;49.662;8.448;2022-11-04T09:09:19;99798.44;;;11.91;100.00
37238;BME280;23129;49.662;8.448;2022-11-04T09:11:48;99797.38;;;11.95;100.00
37238;BME280;23129;49.662;8.448;2022-11-04T09:14:16;99798.03;;;12.00;100.00
37238;BME280;23129;49.662;8.448;2022-11-04T09:16:45;99792.69;;;12.01;100.00
37238;BME280;23129;49.662;8.448;2022-11-04T09:19:13;99800.56;;;12.01;100.00
37238;BME280;23129;49.662;8.448;2022-11-04T09:21:42;99798.03;;;12.00;100.00
37238;BME280;23129;49.662;8.448;2022-11-04T09:24:11;99804.72;;;12.07;100.00
37238;BME280;23129;49.662;8.448;2022-11-04T09:26:39;99807.06;;;12.13;100.00
37238;BME280;23129;49.662;8.448;2022-11-04T09:29:08;99818.38;;;12.15;100.00
37238;BME280;23129;49.662;8.448;2022-11-04T09:31:36;99817.31;;;12.19;100.00
37238;BME280;23129;49.662;8.448;2022-11-04T09:34:05;99818.81;;;12.25;100.00
37238;BME280;23129;49.662;8.448;2022-11-04T09:36:34;99823.78;;;12.31;100.00
37238;BME280;23129;49.662;8.448;2022-11-04T09:39:03;99815.72;;;12.36;100.00
37238;BME280;23129;49.662;8.448;2022-11-04T09:41:53;99818.69;;;12.47;100.00
37238;BME280;23129;49.662;8.448;2022-11-04T09:44:27;99818.34;;;12.54;100.00
37238;BME280;23129;49.662;8.448;2022-11-04T09:47:00;99816.56;;;12.55;100.00
37238;BME280;23129;49.662;8.448;2022-11-04T09:49:35;99819.47;;;12.49;100.00
37238;BME280;23129;49.662;8.448;2022-11-04T09:52:12;99829.63;;;12.38;100.00
37238;BME280;23129;49.662;8.448;2022-11-04T09:54:52;99832.19;;;12.39;100.00
37238;BME280;23129;49.662;8.448;2022-11-04T09:57:21;99837.31;;;12.42;100.00
37238;BME280;23129;49.662;8.448;2022-11-04T09:59:51;99838.97;;;12.45;100.00
37238;BME280;23129;49.662;8.448;2022-11-04T10:02:52;99849.41;;;12.46;100.00
37238;BME280;23129;49.662;8.448;2022-11-04T10:05:48;99847.00;;;12.42;100.00
37238;BME280;23129;49.662;8.448;2022-11-04T10:08:45;99851.50;;;12.38;100.00
37238;BME280;23129;49.662;8.448;2022-11-04T10:11:26;99856.84;;;12.37;100.00
37238;BME280;23129;49.662;8.448;2022-11-04T10:14:19;99862.13;;;12.37;100.00
37238;BME280;23129;49.662;8.448;2022-11-04T10:17:00;99849.75;;;12.39;100.00
37238;BME280;23129;49.662;8.448;2022-11-04T10:19:48;99853.66;;;12.49;100.00
37238;BME280;23129;49.662;8.448;2022-11-04T10:22:31;99844.56;;;12.56;100.00
37238;BME280;23129;49.662;8.448;2022-11-04T10:25:07;99836.34;;;12.64;100.00
37238;BME280;23129;49.662;8.448;2022-11-04T10:27:42;99839.75;;;12.66;100.00
37238;BME280;23129;49.662;8.448;2022-11-04T10:30:17;99837.19;;;12.64;100.00
37238;BME280;23129;49.662;8.448;2022-11-04T10:32:58;99830.22;;;12.63;100.00
37238;BME280;23129;49.662;8.448;2022-11-04T10:35:34;99825.81;;;12.64;100.00
37238;BME280;23129;49.662;8.448;2022-11-04T10:38:17;99822.84;;;12.71;100.00
37238;BME280;23129;49.662;8.448;2022-11-04T10:40:49;99812.78;;;12.79;100.00
37238;BME280;23129;49.662;8.448;2022-11-04T10:43:29;99815.28;;;12.83;100.00
37238;BME280;23129;49.662;8.448;2022-11-04T10:46:23;99820.38;;;12.86;100.00
37238;BME280;23129;49.662;8.448;2022-11-04T10:48:59;99816.84;;;12.87;100.00
37238;BME280;23129;49.662;8.448;2022-11-04T10:51:30;99816.69;;;12.90;100.00
37238;BME280;23129;49.662;8.448;2022-11-04T10:54:00;99808.81;;;13.07;100.00
37238;BME280;23129;49.662;8.448;2022-11-04T10:56:36;99803.97;;;13.36;100.00
37238;BME280;23129;49.662;8.448;2022-11-04T10:59:22;99806.13;;;13.62;100.00
37238;BME280;23129;49.662;8.448;2022-11-04T11:01:54;99800.56;;;13.68;100.00
37238;BME280;23129;49.662;8.448;2022-11-04T11:04:29;99799.22;;;13.77;100.00
37238;BME280;23129;49.662;8.448;2022-11-04T11:07:01;99798.06;;;13.83;100.00
37238;BME280;23129;49.662;8.448;2022-11-04T11:09:34;99797.66;;;13.90;100.00
37238;BME280;23129;49.662;8.448;2022-11-04T11:12:11;99800.53;;;14.03;100.00
37238;BME280;23129;49.662;8.448;2022-11-04T11:15:27;99799.88;;;14.15;100.00
37238;BME280;23129;49.662;8.448;2022-11-04T11:18:09;99801.25;;;14.23;100.00
37238;BME280;23129;49.662;8.448;2022-11-04T11:20:40;99798.88;;;14.34;100.00
37238;BME280;23129;49.662;8.448;2022-11-04T11:23:38;99786.31;;;14.39;100.00
37238;BME280;23129;49.662;8.448;2022-11-04T11:26:08;99788.06;;;14.38;100.00
37238;BME280;23129;49.662;8.448;2022-11-04T11:28:39;99788.34;;;14.34;100.00
37238;BME280;23129;49.662;8.448;2022-11-04T11:31:12;99797.09;;;14.34;100.00
37238;BME280;23129;49.662;8.448;2022-11-04T11:33:53;99797.19;;;14.33;100.00
37238;BME280;23129;49.662;8.448;2022-11-04T11:36:24;99793.94;;;14.28;100.00
37238;BME280;23129;49.662;8.448;2022-11-04T11:39:00;99792.53;;;14.21;100.00
37238;BME280;23129;49.662;8.448;2022-11-04T11:41:34;99792.88;;;14.14;100.00
37238;BME280;23129;49.662;8.448;2022-11-04T11:44:26;99791.66;;;14.04;100.00
37238;BME280;23129;49.662;8.448;2022-11-04T11:47:01;99790.13;;;14.00;100.00
37238;BME280;23129;49.662;8.448;2022-11-04T11:49:33;99792.84;;;13.99;100.00
37238;BME280;23129;49.662;8.448;2022-11-04T11:52:31;99788.75;;;13.93;100.00
37238;BME280;23129;49.662;8.448;2022-11-04T11:55:04;99778.34;;;13.90;100.00
37238;BME280;23129;49.662;8.448;2022-11-04T11:57:47;99791.63;;;13.88;100.00
37238;BME280;23129;49.662;8.448;2022-11-04T12:00:45;99788.06;;;13.89;100.00
37238;BME280;23129;49.662;8.448;2022-11-04T12:03:29;99787.88;;;13.92;100.00
37238;BME280;23129;49.662;8.448;2022-11-04T12:06:31;99786.41;;;13.87;100.00
37238;BME280;23129;49.662;8.448;2022-11-04T12:09:32;99792.19;;;13.78;100.00
37238;BME280;23129;49.662;8.448;2022-11-04T12:12:22;99781.00;;;13.73;100.00
37238;BME280;23129;49.662;8.448;2022-11-04T12:15:07;99774.56;;;13.78;100.00
37238;BME280;23129;49.662;8.448;2022-11-04T12:17:54;99773.56;;;13.81;100.00
37238;BME280;23129;49.662;8.448;2022-11-04T12:20:48;99776.97;;;13.83;100.00
37238;BME280;23129;49.662;8.448;2022-11-04T12:23:23;99777.16;;;13.62;100.00
37238;BME280;23129;49.662;8.448;2022-11-04T12:26:09;99780.25;;;13.53;100.00
37238;BME280;23129;49.662;8.448;2022-11-04T12:28:57;99783.13;;;13.48;100.00
37238;BME280;23129;49.662;8.448;2022-11-04T12:31:39;99771.72;;;13.48;100.00
37238;BME280;23129;49.662;8.448;2022-11-04T12:34:19;99775.16;;;13.50;100.00
37238;BME280;23129;49.662;8.448;2022-11-04T12:37:14;99788.22;;;13.52;100.00
37238;BME280;23129;49.662;8.448;2022-11-04T12:40:10;99782.25;;;13.48;100.00
37238;BME280;23129;49.662;8.448;2022-11-04T12:43:06;99780.72;;;13.44;100.00
37238;BME280;23129;49.662;8.448;2022-11-04T12:45:51;99781.19;;;13.35;100.00
37238;BME280;23129;49.662;8.448;2022-11-04T12:48:50;99784.31;;;13.24;100.00
37238;BME280;23129;49.662;8.448;2022-11-04T12:51:36;99796.31;;;13.12;100.00
37238;BME280;23129;49.662;8.448;2022-11-04T12:54:29;99799.38;;;13.03;100.00
37238;BME280;23129;49.662;8.448;2022-11-04T12:57:15;99797.91;;;12.97;100.00
37238;BME280;23129;49.662;8.448;2022-11-04T13:00:08;99797.84;;;12.99;100.00
37238;BME280;23129;49.662;8.448;2022-11-04T13:02:42;99802.09;;;13.01;100.00
37238;BME280;23129;49.662;8.448;2022-11-04T13:05:37;99793.16;;;13.23;100.00
37238;BME280;23129;49.662;8.448;2022-11-04T13:08:18;99794.91;;;13.59;100.00
37238;BME280;23129;49.662;8.448;2022-11-04T13:10:54;99785.47;;;13.88;100.00
37238;BME280;23129;49.662;8.448;2022-11-04T13:13:33;99798.81;;;14.02;100.00
37238;BME280;23129;49.662;8.448;2022-11-04T13:16:07;99800.56;;;14.19;100.00
37238;BME280;23129;49.662;8.448;2022-11-04T13:18:39;99804.50;;;14.28;100.00
37238;BME280;23129;49.662;8.448;2022-11-04T13:21:12;99802.47;;;14.33;100.00
37238;BME280;23129;49.662;8.448;2022-11-04T13:23:50;99811.41;;;14.46;100.00
37238;BME280;23129;49.662;8.448;2022-11-04T13:26:20;99810.16;;;14.53;100.00
37238;BME280;23129;49.662;8.448;2022-11-04T13:28:56;99816.00;;;14.60;100.00
37238;BME280;23129;49.662;8.448;2022-11-04T13:31:45;99814.28;;;14.75;100.00
37238;BME280;23129;49.662;8.448;2022-11-04T13:34:26;99816.09;;;14.90;100.00
37238;BME280;23129;49.662;8.448;2022-11-04T13:37:10;99810.44;;;14.96;100.00